sensor_id;sensor_type;location;lat;lon;timestamp;pressure;altitude;pressure_sealevel;temperature;humidity
28448;BME280;15675;52.870;-1.416;2022-09-13T00:00:55;100713.06;;;15.26;100.00
28448;BME280;15675;52.870;-1.416;2022-09-13T00:03:21;100708.91;;;15.14;100.00
28448;BME280;15675;52.870;-1.416;2022-09-13T00:05:47;100710.69;;;15.12;100.00
28448;BME280;15675;52.870;-1.416;2022-09-13T00:08:13;100710.09;;;14.92;100.00
28448;BME280;15675;52.870;-1.416;2022-09-13T00:10:42;100718.09;;;14.82;100.00
28448;BME280;15675;52.870;-1.416;2022-09-13T00:13:09;100718.69;;;15.01;100.00
28448;BME280;15675;52.870;-1.416;2022-09-13T00:15:35;100708.31;;;14.97;100.00
28448;BME280;15675;52.870;-1.416;2022-09-13T00:18:01;100700.63;;;14.84;100.00
28448;BME280;15675;52.870;-1.416;2022-09-13T00:20:27;100703.28;;;14.81;100.00
28448;BME280;15675;52.870;-1.416;2022-09-13T00:22:53;100698.81;;;14.90;100.00
28448;BME280;15675;52.870;-1.416;2022-09-13T00:25:18;100711.81;;;14.94;100.00
28448;BME280;15675;52.870;-1.416;2022-09-13T00:27:44;100707.69;;;14.79;100.00
28448;BME280;15675;52.870;-1.416;2022-09-13T00:30:11;100706.25;;;14.55;100.00
28448;BME280;15675;52.870;-1.416;2022-09-13T00:32:37;100711.69;;;14.37;100.00
28448;BME280;15675;52.870;-1.416;2022-09-13T00:35:04;100715.97;;;14.41;100.00
28448;BME280;15675;52.870;-1.416;2022-09-13T00:37:30;100711.66;;;14.40;100.00
28448;BME280;15675;52.870;-1.416;2022-09-13T00:39:58;100713.13;;;14.61;100.00
28448;BME280;15675;52.870;-1.416;2022-09-13T00:42:25;100717.34;;;14.73;100.00
28448;BME280;15675;52.870;-1.416;2022-09-13T00:47:48;100707.91;;;14.62;100.00
28448;BME280;15675;52.870;-1.416;2022-09-13T00:53:14;100715.25;;;14.98;100.00
28448;BME280;15675;52.870;-1.416;2022-09-13T00:55:51;100718.81;;;15.48;100.00
28448;BME280;15675;52.870;-1.416;2022-09-13T00:58:35;100722.44;;;15.41;100.00
28448;BME280;15675;52.870;-1.416;2022-09-13T01:01:07;100729.31;;;15.47;100.00
28448;BME280;15675;52.870;-1.416;2022-09-13T01:03:34;100739.50;;;15.64;100.00
28448;BME280;15675;52.870;-1.416;2022-09-13T01:06:09;100729.31;;;15.47;100.00
28448;BME280;15675;52.870;-1.416;2022-09-13T01:08:38;100722.69;;;14.63;100.00
28448;BME280;15675;52.870;-1.416;2022-09-13T01:11:10;100727.22;;;14.46;100.00
28448;BME280;15675;52.870;-1.416;2022-09-13T01:13:37;100721.63;;;14.02;100.00
28448;BME280;15675;52.870;-1.416;2022-09-13T01:16:04;100712.28;;;13.83;100.00
28448;BME280;15675;52.870;-1.416;2022-09-13T01:18:30;100723.75;;;13.63;100.00
28448;BME280;15675;52.870;-1.416;2022-09-13T01:21:14;100722.91;;;13.59;100.00
28448;BME280;15675;52.870;-1.416;2022-09-13T01:24:02;100733.09;;;13.86;100.00
28448;BME280;15675;52.870;-1.416;2022-09-13T01:29:34;100730.94;;;14.25;100.00
28448;BME280;15675;52.870;-1.416;2022-09-13T01:32:37;100723.84;;;14.36;100.00
28448;BME280;15675;52.870;-1.416;2022-09-13T01:43:10;100720.28;;;14.43;100.00
28448;BME280;15675;52.870;-1.416;2022-09-13T01:46:05;100714.00;;;13.80;100.00
28448;BME280;15675;52.870;-1.416;2022-09-13T01:48:56;100711.81;;;13.36;100.00
28448;BME280;15675;52.870;-1.416;2022-09-13T01:51:43;100712.97;;;12.91;100.00
28448;BME280;15675;52.870;-1.416;2022-09-13T01:57:11;100715.59;;;12.88;100.00
28448;BME280;15675;52.870;-1.416;2022-09-13T02:00:03;100722.44;;;13.00;100.00
28448;BME280;15675;52.870;-1.416;2022-09-13T02:02:35;100725.91;;;13.01;100.00
28448;BME280;15675;52.870;-1.416;2022-09-13T02:05:10;100723.50;;;12.71;100.00
28448;BME280;15675;52.870;-1.416;2022-09-13T02:07:44;100731.28;;;12.76;100.00
28448;BME280;15675;52.870;-1.416;2022-09-13T02:10:20;100735.47;;;13.02;100.00
28448;BME280;15675;52.870;-1.416;2022-09-13T02:12:49;100735.44;;;13.06;100.00
28448;BME280;15675;52.870;-1.416;2022-09-13T02:15:28;100737.91;;;13.26;100.00
28448;BME280;15675;52.870;-1.416;2022-09-13T02:18:09;100739.38;;;13.66;100.00
28448;BME280;15675;52.870;-1.416;2022-09-13T02:20:39;100741.97;;;13.66;100.00
28448;BME280;15675;52.870;-1.416;2022-09-13T02:23:12;100741.06;;;13.70;100.00
28448;BME280;15675;52.870;-1.416;2022-09-13T02:25:38;100739.72;;;14.19;100.00
28448;BME280;15675;52.870;-1.416;2022-09-13T02:28:09;100734.50;;;14.18;100.00
28448;BME280;15675;52.870;-1.416;2022-09-13T02:30:38;100730.38;;;13.96;100.00
28448;BME280;15675;52.870;-1.416;2022-09-13T02:33:23;100724.44;;;14.60;100.00
28448;BME280;15675;52.870;-1.416;2022-09-13T02:35:56;100720.59;;;14.19;100.00
28448;BME280;15675;52.870;-1.416;2022-09-13T02:38:32;100721.81;;;14.63;100.00
28448;BME280;15675;52.870;-1.416;2022-09-13T02:41:12;100710.16;;;14.89;100.00
28448;BME280;15675;52.870;-1.416;2022-09-13T02:43:42;100715.88;;;14.50;100.00
28448;BME280;15675;52.870;-1.416;2022-09-13T02:48:59;100716.72;;;14.50;100.00
28448;BME280;15675;52.870;-1.416;2022-09-13T02:51:43;100702.69;;;14.61;100.00
28448;BME280;15675;52.870;-1.416;2022-09-13T02:59:26;100703.53;;;14.64;100.00
28448;BME280;15675;52.870;-1.416;2022-09-13T03:01:58;100702.84;;;14.47;100.00
28448;BME280;15675;52.870;-1.416;2022-09-13T03:04:26;100690.41;;;13.93;100.00
28448;BME280;15675;52.870;-1.416;2022-09-13T03:06:52;100694.41;;;13.38;100.00
28448;BME280;15675;52.870;-1.416;2022-09-13T03:09:18;100690.50;;;12.70;100.00
28448;BME280;15675;52.870;-1.416;2022-09-13T03:19:47;100690.50;;;12.70;100.00
28448;BME280;15675;52.870;-1.416;2022-09-13T03:30:48;100717.84;;;13.41;100.00
28448;BME280;15675;52.870;-1.416;2022-09-13T03:36:05;100718.59;;;13.54;100.00
28448;BME280;15675;52.870;-1.416;2022-09-13T03:38:46;100727.41;;;13.40;100.00
28448;BME280;15675;52.870;-1.416;2022-09-13T03:41:21;100720.72;;;12.98;100.00
28448;BME280;15675;52.870;-1.416;2022-09-13T03:43:52;100721.78;;;12.61;100.00
28448;BME280;15675;52.870;-1.416;2022-09-13T03:46:34;100718.44;;;12.37;100.00
28448;BME280;15675;52.870;-1.416;2022-09-13T03:49:07;100727.06;;;12.39;100.00
28448;BME280;15675;52.870;-1.416;2022-09-13T03:51:34;100736.69;;;12.25;100.00
28448;BME280;15675;52.870;-1.416;2022-09-13T03:54:04;100739.31;;;12.14;100.00
28448;BME280;15675;52.870;-1.416;2022-09-13T03:56:31;100735.84;;;12.01;100.00
28448;BME280;15675;52.870;-1.416;2022-09-13T03:58:56;100730.66;;;12.04;100.00
28448;BME280;15675;52.870;-1.416;2022-09-13T04:01:23;100739.31;;;12.05;100.00
28448;BME280;15675;52.870;-1.416;2022-09-13T04:03:49;100744.47;;;12.25;100.00
28448;BME280;15675;52.870;-1.416;2022-09-13T04:06:15;100745.09;;;12.87;100.00
28448;BME280;15675;52.870;-1.416;2022-09-13T04:08:41;100739.66;;;13.26;100.00
28448;BME280;15675;52.870;-1.416;2022-09-13T04:11:06;100735.13;;;13.56;100.00
28448;BME280;15675;52.870;-1.416;2022-09-13T04:13:34;100733.31;;;13.59;100.00
28448;BME280;15675;52.870;-1.416;2022-09-13T04:16:01;100723.78;;;13.58;100.00
28448;BME280;15675;52.870;-1.416;2022-09-13T04:18:28;100718.81;;;13.24;100.00
28448;BME280;15675;52.870;-1.416;2022-09-13T04:20:57;100727.25;;;13.59;100.00
28448;BME280;15675;52.870;-1.416;2022-09-13T04:23:24;100722.66;;;13.86;100.00
28448;BME280;15675;52.870;-1.416;2022-09-13T04:25:50;100723.91;;;13.43;100.00
28448;BME280;15675;52.870;-1.416;2022-09-13T04:28:17;100722.25;;;13.36;100.00
28448;BME280;15675;52.870;-1.416;2022-09-13T04:30:44;100726.25;;;13.72;100.00
28448;BME280;15675;52.870;-1.416;2022-09-13T04:33:09;100715.06;;;13.61;100.00
28448;BME280;15675;52.870;-1.416;2022-09-13T04:35:35;100716.56;;;12.67;100.00
28448;BME280;15675;52.870;-1.416;2022-09-13T04:38:01;100713.16;;;12.56;100.00
28448;BME280;15675;52.870;-1.416;2022-09-13T04:40:26;100720.91;;;12.62;100.00
28448;BME280;15675;52.870;-1.416;2022-09-13T04:42:52;100718.44;;;12.36;100.00
28448;BME280;15675;52.870;-1.416;2022-09-13T04:45:17;100720.88;;;12.73;100.00
28448;BME280;15675;52.870;-1.416;2022-09-13T04:47:43;100721.66;;;12.81;100.00
28448;BME280;15675;52.870;-1.416;2022-09-13T04:50:08;100728.50;;;13.01;100.00
28448;BME280;15675;52.870;-1.416;2022-09-13T04:52:35;100726.47;;;13.48;100.00
28448;BME280;15675;52.870;-1.416;2022-09-13T04:55:00;100730.88;;;13.44;100.00
28448;BME280;15675;52.870;-1.416;2022-09-13T04:57:27;100725.50;;;13.61;100.00
28448;BME280;15675;52.870;-1.416;2022-09-13T04:59:53;100734.09;;;13.75;100.00
28448;BME280;15675;52.870;-1.416;2022-09-13T05:02:18;100727.09;;;13.77;100.00
28448;BME280;15675;52.870;-1.416;2022-09-13T05:04:44;100728.16;;;13.55;100.00
28448;BME280;15675;52.870;-1.416;2022-09-13T05:07:09;100728.66;;;12.79;100.00
28448;BME280;15675;52.870;-1.416;2022-09-13T05:09:35;100726.28;;;12.22;100.00
28448;BME280;15675;52.870;-1.416;2022-09-13T05:12:01;100722.81;;;12.18;100.00
28448;BME280;15675;52.870;-1.416;2022-09-13T05:14:26;100730.41;;;12.72;100.00
28448;BME280;15675;52.870;-1.416;2022-09-13T05:16:52;100738.28;;;12.62;100.00
28448;BME280;15675;52.870;-1.416;2022-09-13T05:19:17;100739.81;;;13.01;100.00
28448;BME280;15675;52.870;-1.416;2022-09-13T05:21:43;100744.78;;;13.34;100.00
28448;BME280;15675;52.870;-1.416;2022-09-13T05:24:08;100736.03;;;13.50;100.00
28448;BME280;15675;52.870;-1.416;2022-09-13T05:26:34;100732.50;;;13.56;100.00
28448;BME280;15675;52.870;-1.416;2022-09-13T05:28:59;100732.72;;;13.23;100.00
28448;BME280;15675;52.870;-1.416;2022-09-13T05:31:37;100737.41;;;12.67;100.00
28448;BME280;15675;52.870;-1.416;2022-09-13T05:34:06;100736.69;;;12.23;100.00
28448;BME280;15675;52.870;-1.416;2022-09-13T05:36:32;100746.22;;;12.23;100.00
28448;BME280;15675;52.870;-1.416;2022-09-13T05:38:57;100746.22;;;12.23;100.00
28448;BME280;15675;52.870;-1.416;2022-09-13T05:41:23;100747.97;;;12.15;100.00
28448;BME280;15675;52.870;-1.416;2022-09-13T05:43:49;100743.66;;;12.12;100.00
28448;BME280;15675;52.870;-1.416;2022-09-13T05:46:16;100743.63;;;12.18;100.00
28448;BME280;15675;52.870;-1.416;2022-09-13T05:48:43;100742.78;;;11.93;100.00
28448;BME280;15675;52.870;-1.416;2022-09-13T05:51:17;100739.34;;;11.80;100.00
28448;BME280;15675;52.870;-1.416;2022-09-13T05:53:46;100743.66;;;11.80;100.00
28448;BME280;15675;52.870;-1.416;2022-09-13T05:56:23;100753.19;;;12.07;100.00
28448;BME280;15675;52.870;-1.416;2022-09-13T05:58:50;100760.13;;;12.17;100.00
28448;BME280;15675;52.870;-1.416;2022-09-13T06:01:17;100762.72;;;12.08;100.00
28448;BME280;15675;52.870;-1.416;2022-09-13T06:03:49;100764.44;;;12.17;100.00
28448;BME280;15675;52.870;-1.416;2022-09-13T06:06:15;100762.75;;;11.66;100.00
28448;BME280;15675;52.870;-1.416;2022-09-13T06:08:41;100758.41;;;11.56;100.00
28448;BME280;15675;52.870;-1.416;2022-09-13T06:11:09;100758.38;;;11.88;100.00
28448;BME280;15675;52.870;-1.416;2022-09-13T06:13:36;100763.63;;;12.08;100.00
28448;BME280;15675;52.870;-1.416;2022-09-13T06:16:04;100758.38;;;12.27;100.00
28448;BME280;15675;52.870;-1.416;2022-09-13T06:18:32;100756.63;;;12.29;100.00
28448;BME280;15675;52.870;-1.416;2022-09-13T06:21:00;100758.31;;;12.41;100.00
28448;BME280;15675;52.870;-1.416;2022-09-13T06:23:28;100753.91;;;12.54;100.00
28448;BME280;15675;52.870;-1.416;2022-09-13T06:26:08;100759.16;;;12.46;100.00
28448;BME280;15675;52.870;-1.416;2022-09-13T06:28:35;100760.09;;;12.28;100.00
28448;BME280;15675;52.870;-1.416;2022-09-13T06:31:10;100758.25;;;12.64;100.00
28448;BME280;15675;52.870;-1.416;2022-09-13T06:33:37;100757.88;;;13.29;100.00
28448;BME280;15675;52.870;-1.416;2022-09-13T06:36:11;100756.66;;;13.76;100.00
28448;BME280;15675;52.870;-1.416;2022-09-13T06:38:39;100757.53;;;13.78;100.00
28448;BME280;15675;52.870;-1.416;2022-09-13T06:41:12;100755.69;;;13.90;100.00
28448;BME280;15675;52.870;-1.416;2022-09-13T06:43:39;100758.28;;;13.90;100.00
28448;BME280;15675;52.870;-1.416;2022-09-13T06:46:13;100749.69;;;13.80;100.00
28448;BME280;15675;52.870;-1.416;2022-09-13T06:48:42;100758.72;;;13.39;100.00
28448;BME280;15675;52.870;-1.416;2022-09-13T06:51:10;100761.22;;;13.51;100.00
28448;BME280;15675;52.870;-1.416;2022-09-13T06:53:37;100762.00;;;13.64;100.00
28448;BME280;15675;52.870;-1.416;2022-09-13T06:58:34;100763.03;;;13.41;100.00
28448;BME280;15675;52.870;-1.416;2022-09-13T07:01:16;100770.63;;;13.74;100.00
28448;BME280;15675;52.870;-1.416;2022-09-13T07:03:52;100767.94;;;13.81;100.00
28448;BME280;15675;52.870;-1.416;2022-09-13T07:06:22;100770.53;;;13.81;100.00
28448;BME280;15675;52.870;-1.416;2022-09-13T07:08:49;100773.88;;;13.96;100.00
28448;BME280;15675;52.870;-1.416;2022-09-13T07:11:16;100773.69;;;14.16;100.00
28448;BME280;15675;52.870;-1.416;2022-09-13T07:13:49;100765.28;;;13.86;100.00
28448;BME280;15675;52.870;-1.416;2022-09-13T07:16:15;100763.69;;;13.71;100.00
28448;BME280;15675;52.870;-1.416;2022-09-13T07:18:41;100764.63;;;13.58;100.00
28448;BME280;15675;52.870;-1.416;2022-09-13T07:21:09;100763.56;;;13.82;100.00
28448;BME280;15675;52.870;-1.416;2022-09-13T07:23:37;100768.28;;;14.33;100.00
28448;BME280;15675;52.870;-1.416;2022-09-13T07:26:04;100766.22;;;14.64;100.00
28448;BME280;15675;52.870;-1.416;2022-09-13T07:28:33;100764.13;;;14.15;100.00
28448;BME280;15675;52.870;-1.416;2022-09-13T07:31:26;100769.16;;;14.32;100.00
28448;BME280;15675;52.870;-1.416;2022-09-13T07:33:55;100775.25;;;14.32;100.00
28448;BME280;15675;52.870;-1.416;2022-09-13T07:36:21;100776.84;;;14.46;100.00
28448;BME280;15675;52.870;-1.416;2022-09-13T07:38:46;100775.84;;;14.59;100.00
28448;BME280;15675;52.870;-1.416;2022-09-13T07:41:14;100765.88;;;14.14;100.00
28448;BME280;15675;52.870;-1.416;2022-09-13T07:43:41;100762.69;;;13.83;100.00
28448;BME280;15675;52.870;-1.416;2022-09-13T07:46:08;100766.75;;;14.17;100.00
28448;BME280;15675;52.870;-1.416;2022-09-13T07:48:36;100774.59;;;14.10;100.00
28448;BME280;15675;52.870;-1.416;2022-09-13T07:51:11;100757.50;;;13.80;100.00
28448;BME280;15675;52.870;-1.416;2022-09-13T07:53:38;100767.03;;;13.86;100.00
28448;BME280;15675;52.870;-1.416;2022-09-13T07:56:06;100760.16;;;13.77;100.00
28448;BME280;15675;52.870;-1.416;2022-09-13T07:58:34;100756.88;;;14.42;100.00
28448;BME280;15675;52.870;-1.416;2022-09-13T08:03:41;100749.69;;;13.80;100.00
28448;BME280;15675;52.870;-1.416;2022-09-13T08:06:07;100746.72;;;14.15;100.00
28448;BME280;15675;52.870;-1.416;2022-09-13T08:08:34;100746.19;;;14.63;100.00
28448;BME280;15675;52.870;-1.416;2022-09-13T08:11:00;100753.78;;;14.85;100.00
28448;BME280;15675;52.870;-1.416;2022-09-13T08:13:27;100743.09;;;14.99;100.00
28448;BME280;15675;52.870;-1.416;2022-09-13T08:15:54;100744.06;;;14.92;100.00
28448;BME280;15675;52.870;-1.416;2022-09-13T08:18:20;100748.03;;;15.19;100.00
28448;BME280;15675;52.870;-1.416;2022-09-13T08:20:46;100738.91;;;15.48;100.00
28448;BME280;15675;52.870;-1.416;2022-09-13T08:23:12;100743.66;;;15.76;100.00
28448;BME280;15675;52.870;-1.416;2022-09-13T08:25:38;100747.28;;;15.67;100.00
28448;BME280;15675;52.870;-1.416;2022-09-13T08:28:05;100745.41;;;15.75;100.00
28448;BME280;15675;52.870;-1.416;2022-09-13T08:30:33;100749.75;;;15.79;100.00
28448;BME280;15675;52.870;-1.416;2022-09-13T08:33:00;100752.63;;;15.61;100.00
28448;BME280;15675;52.870;-1.416;2022-09-13T08:35:27;100751.00;;;15.55;100.00
28448;BME280;15675;52.870;-1.416;2022-09-13T08:37:53;100746.03;;;15.38;100.00
28448;BME280;15675;52.870;-1.416;2022-09-13T08:40:19;100752.44;;;15.71;100.00
28448;BME280;15675;52.870;-1.416;2022-09-13T08:45:29;100759.50;;;16.18;100.00
28448;BME280;15675;52.870;-1.416;2022-09-13T08:48:19;100756.22;;;16.07;100.00
28448;BME280;15675;52.870;-1.416;2022-09-13T08:50:43;100757.28;;;16.42;100.00
28448;BME280;15675;52.870;-1.416;2022-09-13T08:53:28;100755.22;;;16.14;99.40
28448;BME280;15675;52.870;-1.416;2022-09-13T09:04:14;100760.09;;;16.32;99.62
28448;BME280;15675;52.870;-1.416;2022-09-13T09:06:44;100764.19;;;16.46;98.38
28448;BME280;15675;52.870;-1.416;2022-09-13T09:09:15;100757.69;;;16.65;97.80
28448;BME280;15675;52.870;-1.416;2022-09-13T09:11:53;100767.41;;;16.62;99.31
28448;BME280;15675;52.870;-1.416;2022-09-13T09:14:27;100764.75;;;16.18;100.00
28448;BME280;15675;52.870;-1.416;2022-09-13T09:17:10;100757.44;;;16.78;99.19
28448;BME280;15675;52.870;-1.416;2022-09-13T09:19:41;100759.84;;;16.87;96.47
28448;BME280;15675;52.870;-1.416;2022-09-13T09:22:20;100766.47;;;16.63;95.80
28448;BME280;15675;52.870;-1.416;2022-09-13T09:24:53;100760.75;;;16.44;97.15
28448;BME280;15675;52.870;-1.416;2022-09-13T09:27:20;100752.88;;;16.86;97.26
28448;BME280;15675;52.870;-1.416;2022-09-13T09:29:48;100750.41;;;17.20;95.22
28448;BME280;15675;52.870;-1.416;2022-09-13T09:35:14;100759.22;;;16.76;99.01
28448;BME280;15675;52.870;-1.416;2022-09-13T09:37:45;100754.66;;;16.85;99.15
28448;BME280;15675;52.870;-1.416;2022-09-13T09:40:15;100742.97;;;17.02;98.58
28448;BME280;15675;52.870;-1.416;2022-09-13T09:42:43;100736.56;;;17.50;96.38
28448;BME280;15675;52.870;-1.416;2022-09-13T09:45:32;100733.09;;;17.13;94.41
28448;BME280;15675;52.870;-1.416;2022-09-13T09:48:07;100729.97;;;16.96;95.91
28448;BME280;15675;52.870;-1.416;2022-09-13T09:50:40;100727.91;;;17.12;94.61
28448;BME280;15675;52.870;-1.416;2022-09-13T09:53:15;100727.66;;;16.82;92.51
28448;BME280;15675;52.870;-1.416;2022-09-13T09:55:44;100728.78;;;16.70;93.71
28448;BME280;15675;52.870;-1.416;2022-09-13T09:58:11;100713.44;;;16.94;93.17
28448;BME280;15675;52.870;-1.416;2022-09-13T10:00:55;100712.47;;;16.98;91.46
28448;BME280;15675;52.870;-1.416;2022-09-13T10:03:33;100714.91;;;17.05;92.97
28448;BME280;15675;52.870;-1.416;2022-09-13T10:06:26;100723.41;;;17.51;91.33
28448;BME280;15675;52.870;-1.416;2022-09-13T10:11:52;100719.59;;;17.65;88.43
28448;BME280;15675;52.870;-1.416;2022-09-13T10:14:40;100713.63;;;17.58;87.86
28448;BME280;15675;52.870;-1.416;2022-09-13T10:17:26;100707.28;;;18.01;85.98
28448;BME280;15675;52.870;-1.416;2022-09-13T10:20:15;100689.91;;;17.63;84.08
28448;BME280;15675;52.870;-1.416;2022-09-13T10:22:44;100694.69;;;17.47;85.21
28448;BME280;15675;52.870;-1.416;2022-09-13T10:25:30;100690.81;;;17.25;85.76
28448;BME280;15675;52.870;-1.416;2022-09-13T10:27:57;100684.44;;;17.00;87.30
28448;BME280;15675;52.870;-1.416;2022-09-13T10:30:39;100692.97;;;17.10;89.48
28448;BME280;15675;52.870;-1.416;2022-09-13T10:33:17;100688.56;;;17.10;87.80
28448;BME280;15675;52.870;-1.416;2022-09-13T10:35:52;100681.84;;;17.70;85.82
28448;BME280;15675;52.870;-1.416;2022-09-13T10:38:32;100681.34;;;17.89;86.46
28448;BME280;15675;52.870;-1.416;2022-09-13T10:41:02;100693.28;;;17.68;83.76
28448;BME280;15675;52.870;-1.416;2022-09-13T10:43:29;100698.41;;;17.38;82.87
28448;BME280;15675;52.870;-1.416;2022-09-13T10:45:57;100693.09;;;17.74;80.52
28448;BME280;15675;52.870;-1.416;2022-09-13T10:48:24;100695.06;;;17.66;85.56
28448;BME280;15675;52.870;-1.416;2022-09-13T10:51:04;100683.00;;;17.60;83.15
28448;BME280;15675;52.870;-1.416;2022-09-13T10:53:37;100684.16;;;17.48;81.46
28448;BME280;15675;52.870;-1.416;2022-09-13T10:56:05;100688.72;;;17.40;82.06
28448;BME280;15675;52.870;-1.416;2022-09-13T10:58:31;100677.00;;;17.55;81.20
28448;BME280;15675;52.870;-1.416;2022-09-13T11:03:32;100687.00;;;17.73;84.03
28448;BME280;15675;52.870;-1.416;2022-09-13T11:11:34;100668.09;;;17.60;81.80
28448;BME280;15675;52.870;-1.416;2022-09-13T11:16:43;100677.31;;;17.75;82.24
28448;BME280;15675;52.870;-1.416;2022-09-13T11:21:56;100671.78;;;17.86;82.28
28448;BME280;15675;52.870;-1.416;2022-09-13T11:30:18;100654.91;;;17.97;81.77
28448;BME280;15675;52.870;-1.416;2022-09-13T11:49:49;100643.97;;;18.70;78.71
28448;BME280;15675;52.870;-1.416;2022-09-13T11:52:40;100649.44;;;18.92;75.70
28448;BME280;15675;52.870;-1.416;2022-09-13T11:55:20;100639.41;;;18.77;76.26
28448;BME280;15675;52.870;-1.416;2022-09-13T11:57:51;100637.13;;;18.94;73.47
28448;BME280;15675;52.870;-1.416;2022-09-13T12:05:40;100641.75;;;18.28;77.01
28448;BME280;15675;52.870;-1.416;2022-09-13T12:08:12;100637.09;;;18.66;76.08
28448;BME280;15675;52.870;-1.416;2022-09-13T12:10:58;100643.69;;;19.08;76.76
28448;BME280;15675;52.870;-1.416;2022-09-13T12:13:34;100640.28;;;19.31;74.68
28448;BME280;15675;52.870;-1.416;2022-09-13T12:16:05;100644.59;;;19.07;76.31
28448;BME280;15675;52.870;-1.416;2022-09-13T12:18:36;100646.81;;;18.92;76.94
28448;BME280;15675;52.870;-1.416;2022-09-13T12:21:11;100644.50;;;18.82;78.00
28448;BME280;15675;52.870;-1.416;2022-09-13T12:23:53;100655.25;;;18.74;78.85
28448;BME280;15675;52.870;-1.416;2022-09-13T12:26:45;100648.81;;;18.84;77.18
28448;BME280;15675;52.870;-1.416;2022-09-13T12:32:05;100639.34;;;18.78;76.22
28448;BME280;15675;52.870;-1.416;2022-09-13T12:35:00;100636.44;;;18.88;77.91
28448;BME280;15675;52.870;-1.416;2022-09-13T12:48:00;100640.66;;;18.93;73.82
28448;BME280;15675;52.870;-1.416;2022-09-13T12:58:59;100651.47;;;19.11;74.63
28448;BME280;15675;52.870;-1.416;2022-09-13T13:01:30;100671.41;;;19.18;72.96
28448;BME280;15675;52.870;-1.416;2022-09-13T13:04:00;100653.84;;;18.92;72.19
28448;BME280;15675;52.870;-1.416;2022-09-13T13:09:42;100653.84;;;19.45;71.79
28448;BME280;15675;52.870;-1.416;2022-09-13T13:12:26;100648.97;;;19.60;69.26
28448;BME280;15675;52.870;-1.416;2022-09-13T13:14:53;100646.66;;;20.01;68.37
28448;BME280;15675;52.870;-1.416;2022-09-13T13:39:32;100631.06;;;20.42;70.19
28448;BME280;15675;52.870;-1.416;2022-09-13T13:42:00;100622.97;;;20.23;67.66
28448;BME280;15675;52.870;-1.416;2022-09-13T13:55:02;100632.47;;;20.51;67.93
28448;BME280;15675;52.870;-1.416;2022-09-13T14:00:23;100629.47;;;20.38;70.06
28448;BME280;15675;52.870;-1.416;2022-09-13T14:05:48;100629.34;;;20.63;71.86
28448;BME280;15675;52.870;-1.416;2022-09-13T14:08:36;100614.91;;;20.74;69.27
28448;BME280;15675;52.870;-1.416;2022-09-13T14:11:15;100614.75;;;20.55;67.42
28448;BME280;15675;52.870;-1.416;2022-09-13T14:19:39;100606.69;;;20.81;66.64
28448;BME280;15675;52.870;-1.416;2022-09-13T14:22:23;100607.25;;;20.90;65.26
28448;BME280;15675;52.870;-1.416;2022-09-13T14:27:41;100598.28;;;20.72;66.12
28448;BME280;15675;52.870;-1.416;2022-09-13T14:30:24;100596.81;;;20.42;68.27
28448;BME280;15675;52.870;-1.416;2022-09-13T14:32:56;100598.09;;;20.54;67.37
28448;BME280;15675;52.870;-1.416;2022-09-13T14:35:36;100596.34;;;20.77;67.57
28448;BME280;15675;52.870;-1.416;2022-09-13T14:38:33;100598.47;;;20.21;67.80
28448;BME280;15675;52.870;-1.416;2022-09-13T14:41:20;100598.25;;;20.27;67.26
28448;BME280;15675;52.870;-1.416;2022-09-13T14:43:47;100596.06;;;20.83;66.77
28448;BME280;15675;52.870;-1.416;2022-09-13T14:46:19;100590.38;;;21.14;64.36
28448;BME280;15675;52.870;-1.416;2022-09-13T14:48:50;100594.94;;;20.68;65.24
28448;BME280;15675;52.870;-1.416;2022-09-13T14:51:33;100588.78;;;20.90;65.35
28448;BME280;15675;52.870;-1.416;2022-09-13T14:54:12;100592.75;;;21.00;63.84
28448;BME280;15675;52.870;-1.416;2022-09-13T14:56:42;100595.13;;;21.27;63.74
28448;BME280;15675;52.870;-1.416;2022-09-13T14:59:17;100587.94;;;21.30;62.89
28448;BME280;15675;52.870;-1.416;2022-09-13T15:01:48;100580.28;;;21.03;63.50
28448;BME280;15675;52.870;-1.416;2022-09-13T15:04:16;100588.50;;;20.96;63.85
28448;BME280;15675;52.870;-1.416;2022-09-13T15:06:42;100587.84;;;20.91;66.67
28448;BME280;15675;52.870;-1.416;2022-09-13T15:11:41;100585.16;;;21.13;64.76
28448;BME280;15675;52.870;-1.416;2022-09-13T15:16:46;100579.69;;;21.38;64.25
28448;BME280;15675;52.870;-1.416;2022-09-13T15:21:47;100570.69;;;20.58;64.43
28448;BME280;15675;52.870;-1.416;2022-09-13T15:24:33;100558.88;;;20.89;63.57
28448;BME280;15675;52.870;-1.416;2022-09-13T15:27:06;100566.28;;;21.43;62.39
28448;BME280;15675;52.870;-1.416;2022-09-13T15:29:33;100559.03;;;21.68;60.82
28448;BME280;15675;52.870;-1.416;2022-09-13T15:32:00;100562.13;;;21.58;63.12
28448;BME280;15675;52.870;-1.416;2022-09-13T15:34:27;100559.19;;;21.24;61.75
28448;BME280;15675;52.870;-1.416;2022-09-13T15:39:24;100561.28;;;20.95;62.73
28448;BME280;15675;52.870;-1.416;2022-09-13T15:41:58;100556.25;;;21.30;62.37
28448;BME280;15675;52.870;-1.416;2022-09-13T15:44:25;100561.69;;;21.27;63.20
28448;BME280;15675;52.870;-1.416;2022-09-13T15:46:53;100556.34;;;21.08;64.64
28448;BME280;15675;52.870;-1.416;2022-09-13T15:49:21;100551.66;;;20.94;64.97
28448;BME280;15675;52.870;-1.416;2022-09-13T15:51:55;100552.63;;;20.92;66.36
28448;BME280;15675;52.870;-1.416;2022-09-13T15:54:21;100557.66;;;21.18;63.98
28448;BME280;15675;52.870;-1.416;2022-09-13T15:56:48;100552.44;;;21.37;62.68
28448;BME280;15675;52.870;-1.416;2022-09-13T15:59:18;100549.53;;;21.23;63.33
28448;BME280;15675;52.870;-1.416;2022-09-13T16:01:46;100542.00;;;21.34;64.15
28448;BME280;15675;52.870;-1.416;2022-09-13T16:04:12;100554.81;;;21.02;64.47
28448;BME280;15675;52.870;-1.416;2022-09-13T16:06:38;100553.72;;;21.08;65.93